createdAt,value
2018-07-31T00:00:51.605Z,101470.73
2018-07-31T00:03:20.525Z,101471.80
2018-07-31T00:05:49.331Z,101466.86
2018-07-31T00:08:18.320Z,101461.78
2018-07-31T00:10:47.250Z,101463.27
2018-07-31T00:13:16.182Z,101457.66
2018-07-31T00:15:45.053Z,101468.27
2018-07-31T00:18:13.943Z,101461.91
2018-07-31T00:20:42.839Z,101463.95
2018-07-31T00:23:11.769Z,101469.17
2018-07-31T00:25:40.658Z,101465.79
2018-07-31T00:28:09.651Z,101460.89
2018-07-31T00:30:38.581Z,101459.88
2018-07-31T00:33:07.745Z,101456.89
2018-07-31T00:35:36.623Z,101456.77
2018-07-31T00:38:05.935Z,101454.08
2018-07-31T00:40:34.820Z,101454.24
2018-07-31T00:43:03.823Z,101455.53
2018-07-31T00:45:32.707Z,101456.15
2018-07-31T00:48:01.604Z,101462.03
2018-07-31T00:50:30.521Z,101460.67
2018-07-31T00:52:59.383Z,101456.30
2018-07-31T00:55:28.363Z,101459.70
2018-07-31T00:57:57.415Z,101453.31
2018-07-31T01:00:26.303Z,101459.06
2018-07-31T01:02:55.151Z,101462.34
2018-07-31T01:05:24.047Z,101463.79
2018-07-31T01:07:52.937Z,101459.28
2018-07-31T01:10:21.960Z,101458.97
2018-07-31T01:12:50.833Z,101459.48
2018-07-31T01:15:19.711Z,101460.94
2018-07-31T01:17:48.715Z,101460.55
2018-07-31T01:20:17.623Z,101463.02
2018-07-31T01:22:46.535Z,101468.97
2018-07-31T01:25:15.451Z,101465.23
2018-07-31T01:27:44.343Z,101472.26
2018-07-31T01:30:13.219Z,101460.42
2018-07-31T01:32:42.103Z,101462.47
2018-07-31T01:35:11.049Z,101457.82
2018-07-31T01:37:40.068Z,101451.22
2018-07-31T01:40:08.931Z,101452.41
2018-07-31T01:42:37.927Z,101452.16
2018-07-31T01:45:06.831Z,101452.59
2018-07-31T01:47:35.757Z,101450.20
2018-07-31T01:50:04.680Z,101459.78
2018-07-31T01:52:33.544Z,101464.76
2018-07-31T01:55:02.475Z,101459.53
2018-07-31T01:57:31.312Z,101465.11
2018-07-31T02:00:00.168Z,101460.63
2018-07-31T02:02:29.055Z,101452.55
2018-07-31T02:04:57.933Z,101453.23
2018-07-31T02:07:26.805Z,101455.39
2018-07-31T02:09:55.663Z,101453.82
2018-07-31T02:12:24.615Z,101454.08
2018-07-31T02:14:53.537Z,101451.40
2018-07-31T02:17:22.639Z,101447.43
2018-07-31T02:19:51.476Z,101415.69
2018-07-31T02:22:25.967Z,101446.37
2018-07-31T02:25:00.430Z,101446.92
2018-07-31T02:27:29.262Z,101453.31
2018-07-31T02:30:03.633Z,101450.11
2018-07-31T02:32:32.581Z,101445.51
2018-07-31T02:35:01.471Z,101450.58
2018-07-31T02:37:30.366Z,101441.77
2018-07-31T02:39:59.224Z,101440.83
2018-07-31T02:42:28.193Z,101442.61
2018-07-31T02:44:57.103Z,101438.57
2018-07-31T02:47:25.975Z,101431.76
2018-07-31T02:49:54.828Z,101430.77
2018-07-31T02:52:23.762Z,101438.09
2018-07-31T02:54:52.788Z,101437.42
2018-07-31T02:57:21.724Z,101436.78
2018-07-31T02:59:50.579Z,101431.07
2018-07-31T03:02:19.470Z,101429.15
2018-07-31T03:04:48.303Z,101426.34
2018-07-31T03:07:17.197Z,101417.26
2018-07-31T03:09:46.147Z,101414.97
2018-07-31T03:12:15.032Z,101410.97
2018-07-31T03:14:50.648Z,101409.30
2018-07-31T03:17:19.628Z,101413.23
2018-07-31T03:19:48.589Z,101420.30
2018-07-31T03:22:17.509Z,101419.05
2018-07-31T03:24:46.524Z,101422.96
2018-07-31T03:27:15.397Z,101420.23
2018-07-31T03:29:44.350Z,101428.66
2018-07-31T03:32:13.215Z,101427.66
2018-07-31T03:34:42.275Z,101432.16
2018-07-31T03:37:11.250Z,101432.70
2018-07-31T03:39:40.159Z,101424.73
2018-07-31T03:42:09.044Z,101421.01
2018-07-31T03:44:37.935Z,101424.08
2018-07-31T03:47:06.810Z,101429.79
2018-07-31T03:49:35.675Z,101424.25
2018-07-31T03:52:04.603Z,101420.51
2018-07-31T03:54:33.617Z,101411.98
2018-07-31T03:57:02.545Z,101417.05
2018-07-31T03:59:31.447Z,101419.14
2018-07-31T04:02:00.493Z,101414.25
2018-07-31T04:04:29.343Z,101412.16
2018-07-31T04:06:58.377Z,101414.50
2018-07-31T04:09:27.271Z,101406.59
2018-07-31T04:11:56.182Z,101408.11
2018-07-31T04:14:25.251Z,101404.79
2018-07-31T04:16:54.235Z,101396.48
2018-07-31T04:19:23.063Z,101392.52
2018-07-31T04:21:52.036Z,101386.95
2018-07-31T04:24:21.131Z,101384.98
2018-07-31T04:26:49.993Z,101379.80
2018-07-31T04:29:18.869Z,101380.34
2018-07-31T04:31:47.734Z,101380.47
2018-07-31T04:34:16.704Z,101378.77
2018-07-31T04:36:45.664Z,101378.98
2018-07-31T04:39:14.983Z,101370.62
2018-07-31T04:41:44.224Z,101376.59
2018-07-31T04:44:13.169Z,101381.70
2018-07-31T04:46:42.069Z,101371.48
2018-07-31T04:49:11.059Z,101377.44
2018-07-31T04:51:40.104Z,101369.26
2018-07-31T04:54:08.941Z,101365.34
2018-07-31T04:56:37.845Z,101363.91
2018-07-31T04:59:06.717Z,101366.07
2018-07-31T05:01:35.638Z,101368.70
2018-07-31T05:04:04.620Z,101372.98
2018-07-31T05:06:33.504Z,101381.41
2018-07-31T05:09:02.511Z,101386.59
2018-07-31T05:11:31.390Z,101380.05
2018-07-31T05:14:00.280Z,101372.96
2018-07-31T05:16:29.151Z,101368.73
2018-07-31T05:18:58.064Z,101363.87
2018-07-31T05:21:27.064Z,101358.02
2018-07-31T05:23:55.926Z,101352.37
2018-07-31T05:26:24.870Z,101342.30
2018-07-31T05:28:53.822Z,101350.62
2018-07-31T05:31:24.093Z,101347.89
2018-07-31T05:33:52.992Z,101338.80
2018-07-31T05:36:21.876Z,101336.39
2018-07-31T05:38:50.814Z,101331.48
2018-07-31T05:41:19.710Z,101335.28
2018-07-31T05:43:48.602Z,101332.72
2018-07-31T05:46:17.472Z,101337.20
2018-07-31T05:48:46.400Z,101343.06
2018-07-31T05:51:15.480Z,101341.25
2018-07-31T05:53:44.344Z,101336.95
2018-07-31T05:56:13.227Z,101340.06
2018-07-31T05:58:42.135Z,101343.78
2018-07-31T06:01:11.126Z,101351.77
2018-07-31T06:03:40.209Z,101348.39
2018-07-31T06:06:09.077Z,101350.41
2018-07-31T06:08:38.050Z,101366.03
2018-07-31T06:11:07.006Z,101365.00
2018-07-31T06:13:36.008Z,101366.09
2018-07-31T06:16:04.888Z,101367.08
2018-07-31T06:18:33.750Z,101367.45
2018-07-31T06:21:02.640Z,101370.45
2018-07-31T06:23:31.519Z,101372.56
2018-07-31T06:26:00.527Z,101372.84
2018-07-31T06:28:29.359Z,101365.72
2018-07-31T06:30:58.205Z,101366.22
2018-07-31T06:33:27.070Z,101358.11
2018-07-31T06:35:56.096Z,101351.79
2018-07-31T06:38:24.965Z,101337.94
2018-07-31T06:40:53.871Z,101328.48
2018-07-31T06:43:22.790Z,101328.86
2018-07-31T06:45:51.629Z,101322.84
2018-07-31T06:48:20.512Z,101314.49
2018-07-31T06:50:49.426Z,101317.66
2018-07-31T06:53:18.470Z,101326.34
2018-07-31T06:55:47.522Z,101339.19
2018-07-31T06:58:16.673Z,101342.37
2018-07-31T07:00:45.677Z,101365.89
2018-07-31T07:03:14.544Z,101391.07
2018-07-31T07:05:43.412Z,101376.73
2018-07-31T07:08:12.267Z,101387.47
2018-07-31T07:10:41.154Z,101386.47
2018-07-31T07:13:10.112Z,101377.52
2018-07-31T07:15:39.032Z,101383.92
2018-07-31T07:18:08.300Z,101381.34
2018-07-31T07:20:37.191Z,101393.40
2018-07-31T07:23:06.440Z,101380.62
2018-07-31T07:25:35.344Z,101375.27
2018-07-31T07:28:04.203Z,101384.51
2018-07-31T07:30:33.268Z,101388.30
2018-07-31T07:33:02.160Z,101385.34
2018-07-31T07:35:31.136Z,101386.75
2018-07-31T07:38:00.103Z,101383.52
2018-07-31T07:40:29.020Z,101382.53
2018-07-31T07:42:58.032Z,101388.56
2018-07-31T07:45:26.912Z,101402.73
2018-07-31T07:47:55.784Z,101410.87
2018-07-31T07:50:24.638Z,101413.47
2018-07-31T07:52:53.514Z,101414.38
2018-07-31T07:55:22.440Z,101411.83
2018-07-31T07:57:51.506Z,101413.91
2018-07-31T08:00:20.564Z,101418.59
2018-07-31T08:02:49.779Z,101420.97
2018-07-31T08:05:18.922Z,101416.91
2018-07-31T08:07:48.062Z,101413.13
2018-07-31T08:10:17.201Z,101413.62
2018-07-31T08:12:52.566Z,101406.94
2018-07-31T08:15:21.625Z,101410.95
2018-07-31T08:17:50.628Z,101408.29
2018-07-31T08:20:19.811Z,101412.45
2018-07-31T08:22:48.910Z,101408.64
2018-07-31T08:25:17.816Z,101409.98
2018-07-31T08:27:46.780Z,101424.25
2018-07-31T08:30:15.612Z,101414.33
2018-07-31T08:32:44.498Z,101425.06
2018-07-31T08:35:13.353Z,101426.00
2018-07-31T08:37:42.232Z,101425.94
2018-07-31T08:40:11.086Z,101423.20
2018-07-31T08:42:39.954Z,101427.25
2018-07-31T08:45:08.943Z,101438.80
2018-07-31T08:47:37.932Z,101438.50
2018-07-31T08:50:06.926Z,101446.66
2018-07-31T08:52:35.830Z,101449.73
2018-07-31T08:55:04.747Z,101453.48
2018-07-31T08:57:33.610Z,101458.50
2018-07-31T09:00:02.516Z,101459.16
2018-07-31T09:02:31.542Z,101463.08
2018-07-31T09:05:00.459Z,101468.78
2018-07-31T09:07:29.365Z,101466.34
2018-07-31T09:09:58.251Z,101473.17
2018-07-31T09:12:27.182Z,101492.47
2018-07-31T09:14:56.024Z,101486.03
2018-07-31T09:17:24.934Z,101496.84
2018-07-31T09:19:53.926Z,101504.31
2018-07-31T09:22:23.731Z,101504.73
2018-07-31T09:24:53.190Z,101515.58
2018-07-31T09:27:22.204Z,101521.39
2018-07-31T09:29:51.178Z,101516.55
2018-07-31T09:32:25.244Z,101527.86
2018-07-31T09:34:54.123Z,101528.62
2018-07-31T09:37:23.134Z,101530.25
2018-07-31T09:39:52.366Z,101540.58
2018-07-31T09:42:21.293Z,101550.70
2018-07-31T09:44:50.202Z,101558.60
2018-07-31T09:47:19.078Z,101568.66
2018-07-31T09:49:48.029Z,101574.97
2018-07-31T09:52:16.966Z,101580.15
2018-07-31T09:54:45.814Z,101586.06
2018-07-31T09:57:14.863Z,101585.87
2018-07-31T09:59:43.703Z,101602.16
2018-07-31T10:02:12.909Z,101609.41
2018-07-31T10:04:41.841Z,101604.66
2018-07-31T10:07:10.745Z,101616.08
2018-07-31T10:09:39.737Z,101626.45
2018-07-31T10:12:08.654Z,101636.67
2018-07-31T10:14:37.533Z,101640.44
2018-07-31T10:17:06.708Z,101647.45
2018-07-31T10:19:35.601Z,101650.57
2018-07-31T10:22:04.559Z,101646.71
2018-07-31T10:24:33.467Z,101660.05
2018-07-31T10:27:02.440Z,101649.89
2018-07-31T10:29:31.339Z,101665.02
2018-07-31T10:32:00.359Z,101658.16
2018-07-31T10:34:29.246Z,101671.69
2018-07-31T10:36:58.208Z,101676.70
2018-07-31T10:39:27.310Z,101675.27
2018-07-31T10:41:56.262Z,101683.03
2018-07-31T10:44:25.198Z,101686.95
2018-07-31T10:46:54.735Z,101682.33
2018-07-31T10:49:23.732Z,101686.94
2018-07-31T10:51:53.700Z,101684.20
2018-07-31T10:54:22.624Z,101688.98
2018-07-31T10:56:51.490Z,101687.94
2018-07-31T10:59:20.448Z,101678.91
2018-07-31T11:01:49.323Z,101686.33
2018-07-31T11:04:18.266Z,101690.77
2018-07-31T11:06:47.147Z,101693.98
2018-07-31T11:09:16.153Z,101697.85
2018-07-31T11:11:45.143Z,101689.88
2018-07-31T11:14:14.050Z,101702.28
2018-07-31T11:16:42.948Z,101708.69
2018-07-31T11:19:11.933Z,101706.73
2018-07-31T11:21:40.951Z,101712.65
2018-07-31T11:24:09.880Z,101713.47
2018-07-31T11:26:38.799Z,101714.59
2018-07-31T11:29:07.701Z,101711.87
2018-07-31T11:31:36.628Z,101714.61
2018-07-31T11:34:05.715Z,101710.23
2018-07-31T11:36:34.709Z,101720.12
2018-07-31T11:39:03.828Z,101716.42
2018-07-31T11:41:32.787Z,101710.80
2018-07-31T11:44:01.750Z,101720.32
2018-07-31T11:46:30.643Z,101718.80
2018-07-31T11:48:59.661Z,101723.03
2018-07-31T11:51:28.631Z,101722.04
2018-07-31T11:53:57.848Z,101724.75
2018-07-31T11:56:26.857Z,101711.61
2018-07-31T11:58:55.744Z,101713.88
2018-07-31T12:01:25.667Z,101714.11
2018-07-31T12:03:54.576Z,101720.89
2018-07-31T12:06:23.723Z,101722.67
2018-07-31T12:08:52.652Z,101727.63
2018-07-31T12:11:21.512Z,101717.80
2018-07-31T12:13:50.406Z,101725.47
2018-07-31T12:16:19.282Z,101716.43
2018-07-31T12:18:48.272Z,101711.81
2018-07-31T12:21:17.175Z,101725.27
2018-07-31T12:23:46.228Z,101725.31
2018-07-31T12:26:15.119Z,101719.45
2018-07-31T12:28:44.051Z,101734.80
2018-07-31T12:31:13.051Z,101743.59
2018-07-31T12:33:42.026Z,101740.28
2018-07-31T12:36:11.383Z,101739.20
2018-07-31T12:38:40.497Z,101737.03
2018-07-31T12:41:09.634Z,101745.86
2018-07-31T12:43:38.762Z,101745.16
2018-07-31T12:46:07.791Z,101749.45
2018-07-31T12:48:36.944Z,101749.34
2018-07-31T12:51:05.823Z,101765.79
2018-07-31T12:53:34.793Z,101746.55
2018-07-31T12:56:03.989Z,101773.72
2018-07-31T12:58:33.211Z,101766.32
2018-07-31T13:01:02.462Z,101771.20
2018-07-31T13:03:31.611Z,101765.59
2018-07-31T13:06:00.905Z,101766.78
2018-07-31T13:08:30.080Z,101762.91
2018-07-31T13:10:59.179Z,101762.78
2018-07-31T13:13:28.259Z,101766.64
2018-07-31T13:15:57.175Z,101774.12
2018-07-31T13:18:26.227Z,101778.66
2018-07-31T13:20:55.256Z,101792.25
2018-07-31T13:23:24.279Z,101787.58
2018-07-31T13:25:53.349Z,101781.81
2018-07-31T13:28:22.499Z,101787.89
2018-07-31T13:30:51.773Z,101789.96
2018-07-31T13:33:20.835Z,101787.95
2018-07-31T13:35:50.033Z,101793.78
2018-07-31T13:38:19.129Z,101798.09
2018-07-31T13:40:48.145Z,101799.33
2018-07-31T13:43:17.093Z,101798.25
2018-07-31T13:45:46.117Z,101809.82
2018-07-31T13:48:15.628Z,101801.48
2018-07-31T13:50:44.808Z,101800.06
2018-07-31T13:53:14.091Z,101803.30
2018-07-31T13:55:43.271Z,101808.50
2018-07-31T13:58:12.393Z,101802.58
2018-07-31T14:00:41.672Z,101811.66
2018-07-31T14:03:11.057Z,101799.77
2018-07-31T14:05:40.160Z,101796.91
2018-07-31T14:08:09.202Z,101800.49
2018-07-31T14:10:38.169Z,101803.73
2018-07-31T14:13:07.352Z,101804.52
2018-07-31T14:15:36.542Z,101793.92
2018-07-31T14:18:05.675Z,101789.01
2018-07-31T14:20:34.891Z,101794.28
2018-07-31T14:23:03.903Z,101799.41
2018-07-31T14:25:33.026Z,101801.67
2018-07-31T14:28:02.146Z,101804.72
2018-07-31T14:30:31.348Z,101799.41
2018-07-31T14:33:00.288Z,101805.45
2018-07-31T14:35:29.305Z,101801.86
2018-07-31T14:37:58.269Z,101806.89
2018-07-31T14:40:27.729Z,101807.68
2018-07-31T14:42:56.893Z,101797.40
2018-07-31T14:45:26.015Z,101803.95
2018-07-31T14:47:55.926Z,101811.45
2018-07-31T14:50:25.047Z,101806.19
2018-07-31T14:52:54.359Z,101807.63
2018-07-31T14:55:24.273Z,101812.95
2018-07-31T14:57:53.729Z,101822.59
2018-07-31T15:00:23.036Z,101806.16
2018-07-31T15:02:51.969Z,101813.39
2018-07-31T15:05:20.959Z,101813.18
2018-07-31T15:07:49.840Z,101815.77
2018-07-31T15:10:18.820Z,101816.40
2018-07-31T15:12:47.739Z,101794.92
2018-07-31T15:15:16.581Z,101805.16
2018-07-31T15:17:45.591Z,101812.64
2018-07-31T15:20:14.610Z,101821.95
2018-07-31T15:22:43.666Z,101819.35
2018-07-31T15:25:12.562Z,101824.55
2018-07-31T15:27:41.458Z,101816.67
2018-07-31T15:30:10.482Z,101819.67
2018-07-31T15:32:39.420Z,101813.88
2018-07-31T15:35:08.320Z,101825.28
2018-07-31T15:37:37.286Z,101826.20
2018-07-31T15:40:06.289Z,101822.02
2018-07-31T15:42:35.204Z,101824.63
2018-07-31T15:45:04.158Z,101818.58
2018-07-31T15:47:33.186Z,101826.00
2018-07-31T15:50:02.032Z,101818.28
2018-07-31T15:52:30.903Z,101827.51
2018-07-31T15:54:59.908Z,101835.66
2018-07-31T15:57:29.047Z,101836.87
2018-07-31T15:59:58.110Z,101836.81
2018-07-31T16:02:26.997Z,101836.16
2018-07-31T16:04:55.892Z,101842.44
2018-07-31T16:07:24.795Z,101838.41
2018-07-31T16:09:53.650Z,101837.02
2018-07-31T16:12:22.543Z,101841.73
2018-07-31T16:14:51.411Z,101837.81
2018-07-31T16:17:20.537Z,101848.94
2018-07-31T16:19:49.539Z,101844.45
2018-07-31T16:22:18.478Z,101841.06
2018-07-31T16:24:47.408Z,101842.67
2018-07-31T16:27:16.364Z,101843.94
2018-07-31T16:29:45.249Z,101846.81
2018-07-31T16:32:14.193Z,101854.28
2018-07-31T16:34:43.233Z,101851.75
2018-07-31T16:37:12.182Z,101859.83
2018-07-31T16:39:41.309Z,101863.73
2018-07-31T16:42:10.168Z,101857.30
2018-07-31T16:44:39.260Z,101860.34
2018-07-31T16:47:08.210Z,101860.34
2018-07-31T16:49:37.104Z,101850.97
2018-07-31T16:52:06.134Z,101863.66
2018-07-31T16:54:35.180Z,101858.22
2018-07-31T16:57:04.171Z,101858.77
2018-07-31T16:59:33.271Z,101852.30
2018-07-31T17:02:02.466Z,101864.86
2018-07-31T17:04:31.589Z,101862.57
2018-07-31T17:07:00.493Z,101867.39
2018-07-31T17:09:29.348Z,101856.98
2018-07-31T17:11:58.310Z,101863.66
2018-07-31T17:14:27.378Z,101875.42
2018-07-31T17:16:56.404Z,101871.48
2018-07-31T17:19:25.374Z,101873.83
2018-07-31T17:21:54.279Z,101874.80
2018-07-31T17:24:23.166Z,101869.27
2018-07-31T17:26:52.124Z,101876.95
2018-07-31T17:29:21.093Z,101875.97
2018-07-31T17:31:50.142Z,101863.16
2018-07-31T17:34:19.136Z,101864.81
2018-07-31T17:36:48.334Z,101876.28
2018-07-31T17:39:17.572Z,101867.39
2018-07-31T17:41:46.620Z,101879.31
2018-07-31T17:44:15.978Z,101882.09
2018-07-31T17:46:45.165Z,101885.86
2018-07-31T17:49:14.080Z,101892.25
2018-07-31T17:51:43.203Z,101884.73
2018-07-31T17:54:12.226Z,101889.33
2018-07-31T17:56:41.315Z,101898.85
2018-07-31T17:59:10.371Z,101904.49
2018-07-31T18:01:39.724Z,101898.30
2018-07-31T18:04:08.872Z,101896.88
2018-07-31T18:06:38.304Z,101897.72
2018-07-31T18:09:12.794Z,101903.59
2018-07-31T18:11:47.332Z,101904.73
2018-07-31T18:14:16.719Z,101913.20
2018-07-31T18:16:45.534Z,101903.55
2018-07-31T18:19:14.822Z,101907.45
2018-07-31T18:21:43.877Z,101903.08
2018-07-31T18:24:12.887Z,101906.62
2018-07-31T18:26:42.025Z,101904.40
2018-07-31T18:29:11.145Z,101904.40
2018-07-31T18:31:40.297Z,101908.89
2018-07-31T18:34:09.440Z,101909.62
2018-07-31T18:36:38.726Z,101904.16
2018-07-31T18:39:10.367Z,101911.11
2018-07-31T18:41:39.751Z,101907.34
2018-07-31T18:44:09.436Z,101916.19
2018-07-31T18:46:38.958Z,101913.36
2018-07-31T18:49:08.260Z,101918.16
2018-07-31T18:51:37.358Z,101921.36
2018-07-31T18:54:06.472Z,101921.33
2018-07-31T18:56:35.573Z,101923.03
2018-07-31T18:59:04.702Z,101928.41
2018-07-31T19:01:33.819Z,101924.41
2018-07-31T19:04:05.060Z,101916.22
2018-07-31T19:06:33.996Z,101924.55
2018-07-31T19:09:04.381Z,101931.31
2018-07-31T19:11:33.482Z,101936.59
2018-07-31T19:14:02.582Z,101936.31
2018-07-31T19:16:32.481Z,101941.16
2018-07-31T19:19:01.725Z,101944.31
2018-07-31T19:21:31.093Z,101944.28
2018-07-31T19:24:00.497Z,101948.37
2018-07-31T19:26:29.808Z,101946.53
2018-07-31T19:28:59.267Z,101952.47
2018-07-31T19:31:28.313Z,101953.33
2018-07-31T19:33:57.365Z,101951.27
2018-07-31T19:36:26.234Z,101951.56
2018-07-31T19:38:55.152Z,101960.30
2018-07-31T19:41:24.112Z,101948.14
2018-07-31T19:43:53.025Z,101955.83
2018-07-31T19:46:22.034Z,101948.29
2018-07-31T19:48:52.433Z,101966.52
2018-07-31T19:51:21.357Z,101965.39
2018-07-31T19:53:50.592Z,101965.79
2018-07-31T19:58:53.577Z,101959.09
2018-07-31T20:01:22.495Z,101957.33
2018-07-31T20:03:51.536Z,101963.30
2018-07-31T20:06:20.615Z,101962.56
2018-07-31T20:08:49.559Z,101957.58
2018-07-31T20:11:18.492Z,101951.14
2018-07-31T20:13:48.668Z,101945.80
2018-07-31T20:16:17.683Z,101946.67
2018-07-31T20:18:46.736Z,101948.54
2018-07-31T20:21:15.753Z,101948.27
2018-07-31T20:23:44.922Z,101955.59
2018-07-31T20:26:13.895Z,101959.17
2018-07-31T20:28:42.782Z,101965.14
2018-07-31T20:31:11.640Z,101969.23
2018-07-31T20:33:40.641Z,101972.46
2018-07-31T20:36:09.706Z,101966.63
2018-07-31T20:38:38.614Z,101978.55
2018-07-31T20:41:07.786Z,101976.03
2018-07-31T20:43:36.805Z,101978.77
2018-07-31T20:46:05.711Z,101978.63
2018-07-31T20:48:34.607Z,101986.41
2018-07-31T20:51:03.516Z,101989.98
2018-07-31T20:53:32.489Z,101989.20
2018-07-31T20:56:01.487Z,101983.41
2018-07-31T20:58:30.509Z,101985.05
2018-07-31T21:00:59.432Z,101989.80
2018-07-31T21:03:28.538Z,101986.06
2018-07-31T21:05:57.461Z,101981.48
2018-07-31T21:08:26.453Z,101981.89
2018-07-31T21:10:55.451Z,101988.20
2018-07-31T21:13:25.062Z,101994.11
2018-07-31T21:15:54.005Z,101994.72
2018-07-31T21:18:23.060Z,102001.06
2018-07-31T21:20:52.327Z,102000.20
2018-07-31T21:23:21.231Z,102005.64
2018-07-31T21:25:50.095Z,102007.84
2018-07-31T21:28:19.019Z,102004.11
2018-07-31T21:30:48.124Z,102009.00
2018-07-31T21:33:17.146Z,102008.34
2018-07-31T21:35:46.065Z,102004.90
2018-07-31T21:38:15.056Z,102007.41
2018-07-31T21:40:44.240Z,102013.03
2018-07-31T21:43:13.100Z,102010.73
2018-07-31T21:45:42.020Z,102015.41
2018-07-31T21:48:10.937Z,102022.70
2018-07-31T21:50:39.939Z,102018.27
2018-07-31T21:53:08.880Z,102013.59
2018-07-31T21:55:37.935Z,102021.08
2018-07-31T21:58:06.814Z,102016.33
2018-07-31T22:00:40.991Z,102008.33
2018-07-31T22:03:09.981Z,102013.69
2018-07-31T22:05:39.021Z,102012.27
2018-07-31T22:08:08.015Z,102009.02
2018-07-31T22:10:37.019Z,102014.49
2018-07-31T22:13:05.854Z,102017.30
2018-07-31T22:15:34.743Z,102020.11
2018-07-31T22:18:03.607Z,102015.34
2018-07-31T22:20:32.703Z,102014.62
2018-07-31T22:23:01.852Z,102015.91
2018-07-31T22:25:30.759Z,102017.78
2018-07-31T22:27:59.686Z,102011.19
2018-07-31T22:30:28.671Z,102004.61
2018-07-31T22:32:57.554Z,102004.11
2018-07-31T22:35:26.562Z,102015.34
2018-07-31T22:37:55.562Z,102011.74
2018-07-31T22:40:24.620Z,102014.12
2018-07-31T22:42:53.880Z,102018.95
2018-07-31T22:45:22.905Z,102018.19
2018-07-31T22:47:52.026Z,102015.08
2018-07-31T22:50:20.858Z,102020.13
2018-07-31T22:52:49.902Z,102019.38
2018-07-31T22:55:18.840Z,102021.13
2018-07-31T22:57:47.850Z,102021.20
2018-07-31T23:00:16.853Z,102022.64
2018-07-31T23:02:45.949Z,102017.27
2018-07-31T23:05:14.902Z,102019.09
2018-07-31T23:07:43.784Z,102012.80
2018-07-31T23:10:12.792Z,102020.53
2018-07-31T23:12:41.662Z,102016.30
2018-07-31T23:15:10.690Z,102019.63
2018-07-31T23:17:39.703Z,102011.81
2018-07-31T23:20:08.682Z,102015.98
2018-07-31T23:22:44.698Z,102012.47
2018-07-31T23:25:14.025Z,102016.58
2018-07-31T23:27:43.075Z,102015.39
2018-07-31T23:30:12.170Z,102027.47
2018-07-31T23:32:41.627Z,102027.39
2018-07-31T23:35:10.680Z,102029.61
2018-07-31T23:37:39.617Z,102033.69
2018-07-31T23:40:15.215Z,102025.00
2018-07-31T23:42:44.062Z,102018.51
2018-07-31T23:45:12.987Z,102026.09
2018-07-31T23:47:41.882Z,102022.31
2018-07-31T23:50:10.823Z,102013.24
2018-07-31T23:52:39.808Z,102014.70
2018-07-31T23:55:08.766Z,102019.59
2018-07-31T23:57:37.658Z,102013.35
